Terminal Aerodrome Forecast
Issued by NWS Melbourne, FL

Home | Current Version | Previous Version | Text Only | Print | Product List | Glossary On
Versions: 1 2 3 4 5 6 7 8 9 10 11 12 13 14 15
000
FTUS42 KMLB 291900 AAB
TAFMLB
TAF AMD
KMLB 291952Z 2920/3018 25009KT P6SM VCTS SCT035CB BKN250
      TEMPO 2920/2921 3SM TSRA BKN025CB OVC080
     FM292200 24010KT P6SM SCT035 BKN120 BKN250
     FM300300 24005KT P6SM FEW040 SCT250
     FM301400 28006KT P6SM SCT025=

USA.gov is the U.S. government's official web portal to all federal, state and local government web resources and services.